RO-0031 weather

Aerodrom Crasna
Crasna, S─âlaj, Romania

Public forecast

Using degrees Celsius for public forecast. Weather courtesy of forecast.io.

Closest aviation weather report (METAR) to Aerodrom Crasna

Closest report is Satu Mare Airport, 32.2 nm (59.6 km) N. Retrieved 2019/10/23 20:30 UTC (0 seconds ago):

LRSM 232030Z AUTO 10005KT 7000 NCD 10/09 Q1020

Closest aviation forecast (TAF) to Aerodrom Crasna

Forecast is more than 12 hours old.

Closest forecast is Satu Mare Airport, 32.2 nm (59.6 km) N. Retrieved 2014/07/19 18:48 UTC (5 years ago):

TAF LRSM 191800Z 1918/2024 CNL